Time;durP1;ratioP1;P1;durP2;ratioP2;P2;SDS_P1;SDS_P2;PMS_P1;PMS_P2;Temp;Humidity;BMP_temperature;BMP_pressure;BME280_temperature;BME280_humidity;BME280_pressure;Samples;Min_cycle;Max_cycle;Signal;HPM_P1;HPM_P2
2022/07/31 00:02:57;;;;;;;4.55;2.75;;;;;;;20.64;47.58;100002.00;12203174;19;20077;-79
2022/07/31 00:06:59;;;;;;;5.73;3.00;;;;;;;20.65;48.12;99995.25;12201254;19;20014;-80
2022/07/31 00:11:02;;;;;;;4.50;2.88;;;;;;;20.69;47.72;99995.44;12183005;19;20015;-81
2022/07/31 00:15:06;;;;;;;6.57;2.73;;;;;;;20.74;47.62;99998.13;12199256;19;20010;-79
2022/07/31 00:19:07;;;;;;;4.90;2.55;;;;;;;20.78;47.92;99990.75;12204469;19;20010;-79
2022/07/31 00:23:10;;;;;;;3.85;2.70;;;;;;;20.83;47.67;99993.44;12173273;19;20086;-79
2022/07/31 00:27:11;;;;;;;6.60;2.78;;;;;;;20.86;47.76;99987.22;12201133;19;20035;-79
2022/07/31 00:31:13;;;;;;;4.75;2.50;;;;;;;20.91;47.72;99975.91;12166220;19;20461;-80
2022/07/31 00:35:15;;;;;;;3.90;2.38;;;;;;;20.98;47.46;99980.25;12197084;19;20015;-79
2022/07/31 00:39:16;;;;;;;4.20;2.63;;;;;;;21.00;47.37;99970.38;12196985;19;20035;-79
2022/07/31 00:43:18;;;;;;;4.20;2.28;;;;;;;21.04;47.53;99977.00;12174608;19;20351;-78
2022/07/31 00:47:20;;;;;;;3.80;2.25;;;;;;;21.05;47.01;99977.81;12197841;19;20014;-78
2022/07/31 00:51:26;;;;;;;3.25;2.40;;;;;;;21.00;47.04;99975.13;12215284;19;20002;-80
2022/07/31 00:55:27;;;;;;;5.70;2.60;;;;;;;20.92;47.90;99974.75;12171453;19;19999;-79
2022/07/31 00:59:29;;;;;;;4.70;2.33;;;;;;;20.89;48.24;99981.00;12204555;19;20104;-80
2022/07/31 01:03:31;;;;;;;5.47;2.27;;;;;;;20.85;48.31;99968.75;12204378;19;20082;-77
2022/07/31 01:07:33;;;;;;;4.40;2.50;;;;;;;20.79;48.64;99964.44;12174092;19;20101;-79
2022/07/31 01:11:47;;;;;;;5.82;2.53;;;;;;;20.72;49.06;99969.59;12207764;19;20453;-79
2022/07/31 01:15:52;;;;;;;3.47;2.50;;;;;;;20.60;49.16;99958.13;12208284;19;20019;-79
2022/07/31 01:19:54;;;;;;;4.55;2.63;;;;;;;20.46;49.39;99964.53;12190595;19;20006;-79
2022/07/31 01:24:09;;;;;;;4.85;2.60;;;;;;;20.31;49.38;99964.84;12206492;19;20011;-79
2022/07/31 01:28:59;;;;;;;3.65;2.53;;;;;;;20.17;50.07;99969.63;12190486;19;20097;-79
2022/07/31 01:33:13;;;;;;;3.85;2.65;;;;;;;20.07;49.84;99967.84;12208015;19;20010;-79
2022/07/31 01:37:41;;;;;;;5.10;2.65;;;;;;;19.99;50.11;99961.00;12190011;19;20006;-79
2022/07/31 01:41:46;;;;;;;5.50;2.95;;;;;;;19.90;50.11;99957.25;12210565;19;20110;-79
2022/07/31 01:45:51;;;;;;;3.67;2.45;;;;;;;19.77;50.20;99958.88;12199499;19;20010;-79
2022/07/31 01:49:57;;;;;;;3.90;2.42;;;;;;;19.70;50.51;99954.84;12177079;19;20019;-79
2022/07/31 01:54:00;;;;;;;3.60;2.15;;;;;;;19.64;50.61;99961.63;12207144;19;20002;-79
2022/07/31 01:58:03;;;;;;;6.45;2.80;;;;;;;19.57;50.57;99962.84;12201687;19;20039;-78
2022/07/31 02:02:05;;;;;;;5.82;2.38;;;;;;;19.56;50.65;99957.56;12185107;19;20019;-78
2022/07/31 02:06:13;;;;;;;4.28;2.58;;;;;;;19.55;50.71;99965.13;12207800;19;20039;-78
2022/07/31 02:10:18;;;;;;;6.40;2.85;;;;;;;19.54;50.70;99960.69;12178116;19;20200;-80
2022/07/31 02:14:23;;;;;;;4.07;2.30;;;;;;;19.51;51.10;99963.22;12197016;19;20472;-80
2022/07/31 02:18:26;;;;;;;4.00;2.50;;;;;;;19.48;51.11;99955.44;12202270;19;20007;-79
2022/07/31 02:22:45;;;;;;;5.30;2.75;;;;;;;19.49;51.03;99954.34;12171212;19;20035;-78
2022/07/31 02:26:47;;;;;;;3.80;2.47;;;;;;;19.53;50.65;99952.59;12199315;19;20382;-78
2022/07/31 02:30:50;;;;;;;4.15;2.75;;;;;;;19.58;50.60;99952.50;12209399;19;20003;-78
2022/07/31 02:34:57;;;;;;;3.50;2.33;;;;;;;19.63;50.77;99954.34;12184816;19;20109;-80
2022/07/31 02:39:01;;;;;;;3.50;2.42;;;;;;;19.66;50.59;99948.19;12209606;19;20038;-79
2022/07/31 02:43:03;;;;;;;7.10;2.78;;;;;;;19.65;50.70;99946.53;12205852;19;20015;-79
2022/07/31 02:47:08;;;;;;;6.60;3.15;;;;;;;19.58;50.58;99936.56;12176011;19;20014;-77
2022/07/31 02:51:10;;;;;;;4.37;2.70;;;;;;;19.52;51.38;99942.56;12203954;19;19998;-77
2022/07/31 02:55:16;;;;;;;6.88;2.80;;;;;;;19.46;51.68;99943.78;12183311;19;20007;-77
2022/07/31 02:59:18;;;;;;;5.85;2.53;;;;;;;19.39;51.48;99941.34;12196445;19;20052;-78
2022/07/31 03:03:32;;;;;;;4.03;2.83;;;;;;;19.32;51.47;99938.13;12205113;19;20003;-77
2022/07/31 03:07:33;;;;;;;5.78;2.92;;;;;;;19.28;51.63;99931.50;12179195;19;20852;-79
2022/07/31 03:11:35;;;;;;;6.20;2.42;;;;;;;19.23;51.65;99934.38;12197626;19;20115;-77
2022/07/31 03:15:38;;;;;;;4.35;2.90;;;;;;;19.19;51.71;99924.94;12199112;19;20073;-77
2022/07/31 03:19:40;;;;;;;5.10;2.60;;;;;;;19.13;51.90;99918.63;12175792;19;20366;-77
2022/07/31 03:23:42;;;;;;;3.58;2.50;;;;;;;19.08;52.18;99916.72;12201987;19;20108;-80
2022/07/31 03:27:52;;;;;;;4.55;2.50;;;;;;;19.06;52.17;99915.38;12196054;19;20043;-79
2022/07/31 03:31:59;;;;;;;3.75;2.17;;;;;;;19.06;52.32;99923.75;12182701;19;20027;-80
2022/07/31 03:36:03;;;;;;;4.85;3.15;;;;;;;19.04;52.35;99926.84;12236912;19;20059;-80
2022/07/31 03:40:05;;;;;;;5.70;2.53;;;;;;;19.03;52.18;99925.19;12206341;19;20042;-79
2022/07/31 03:44:07;;;;;;;6.28;2.42;;;;;;;19.03;52.76;99916.78;12181395;19;20010;-80
2022/07/31 03:48:10;;;;;;;4.35;2.60;;;;;;;19.04;52.69;99924.06;12207613;19;20014;-80
2022/07/31 03:52:12;;;;;;;4.22;2.38;;;;;;;19.08;52.68;99927.91;12199370;19;20006;-78
2022/07/31 03:56:16;;;;;;;7.80;2.33;;;;;;;19.10;52.98;99935.97;12205902;19;20010;-80
2022/07/31 04:00:19;;;;;;;4.47;2.97;;;;;;;19.15;53.26;99943.44;12192505;19;20003;-78
2022/07/31 04:04:21;;;;;;;4.90;2.78;;;;;;;19.24;53.03;99950.00;12175178;19;20007;-79
2022/07/31 04:08:36;;;;;;;4.43;2.80;;;;;;;19.33;53.11;99942.56;12196743;19;20018;-79
2022/07/31 04:12:38;;;;;;;4.90;2.90;;;;;;;19.42;53.10;99943.53;12197621;19;20357;-78
2022/07/31 04:16:40;;;;;;;3.95;2.20;;;;;;;19.52;53.02;99943.38;12173977;19;20371;-80
2022/07/31 04:20:41;;;;;;;4.78;2.65;;;;;;;19.66;52.57;99946.25;12204055;19;20014;-79
2022/07/31 04:24:43;;;;;;;4.85;2.47;;;;;;;19.79;52.42;99944.59;12224429;19;20017;-80
2022/07/31 04:29:11;;;;;;;4.32;2.60;;;;;;;19.94;52.19;99951.88;12183393;19;20102;-79
2022/07/31 04:33:13;;;;;;;3.78;2.50;;;;;;;20.07;52.37;99948.25;12205061;19;20010;-79
2022/07/31 04:37:15;;;;;;;7.80;2.45;;;;;;;20.20;51.90;99941.84;12185315;19;20011;-79
2022/07/31 04:41:17;;;;;;;4.72;2.55;;;;;;;20.36;51.93;99945.16;12221252;19;20825;-79
2022/07/31 04:45:19;;;;;;;5.18;2.40;;;;;;;20.54;51.43;99949.00;12205478;19;20102;-79
2022/07/31 04:49:21;;;;;;;3.00;2.22;;;;;;;20.70;51.08;99949.47;12179508;19;21865;-80
2022/07/31 04:53:23;;;;;;;4.90;2.40;;;;;;;20.80;50.97;99949.28;12212289;19;20544;-79
2022/07/31 04:57:25;;;;;;;3.45;2.30;;;;;;;20.89;50.88;99952.97;12212661;19;20015;-80
2022/07/31 05:01:27;;;;;;;4.07;2.60;;;;;;;20.96;51.51;99954.50;12191076;19;20013;-81
2022/07/31 05:05:29;;;;;;;4.70;2.67;;;;;;;21.00;51.52;99947.97;12210147;19;20010;-80
2022/07/31 05:09:32;;;;;;;4.93;2.40;;;;;;;21.07;51.32;99951.16;12209884;19;20013;-81
2022/07/31 05:13:38;;;;;;;4.20;2.20;;;;;;;21.16;50.83;99940.84;12181706;19;20032;-80
2022/07/31 05:17:40;;;;;;;6.03;2.70;;;;;;;21.29;50.80;99950.34;12209789;19;20003;-81
2022/07/31 05:22:01;;;;;;;3.20;2.50;;;;;;;21.36;50.28;99949.94;12213068;19;20366;-80
2022/07/31 05:26:06;;;;;;;5.18;2.97;;;;;;;21.44;50.09;99951.13;12193863;19;20022;-80
2022/07/31 05:30:09;;;;;;;4.15;2.50;;;;;;;21.54;50.21;99946.09;12211627;19;20018;-80
2022/07/31 05:34:11;;;;;;;3.95;2.17;;;;;;;21.64;50.62;99956.22;12210086;19;20390;-80
2022/07/31 05:38:14;;;;;;;4.72;2.40;;;;;;;21.76;50.79;99948.03;12187149;19;20014;-80
2022/07/31 05:42:30;;;;;;;5.70;2.65;;;;;;;21.94;50.68;99948.13;12205591;19;20775;-81
2022/07/31 05:47:01;;;;;;;4.95;2.53;;;;;;;22.16;49.23;99952.84;12184906;19;20021;-80
2022/07/31 05:51:02;;;;;;;3.95;2.38;;;;;;;22.44;47.73;99942.25;12199512;19;20408;-80
2022/07/31 05:55:06;;;;;;;7.25;2.65;;;;;;;22.67;47.12;99955.03;12204205;19;20066;-80
2022/07/31 05:59:26;;;;;;;5.05;2.67;;;;;;;22.75;46.52;99951.44;12178984;19;20018;-80
2022/07/31 06:03:28;;;;;;;4.45;2.42;;;;;;;22.79;45.86;99945.16;12198577;19;20513;-80
2022/07/31 06:07:34;;;;;;;6.68;2.20;;;;;;;22.82;44.92;99944.50;12186588;19;20018;-80
2022/07/31 06:11:37;;;;;;;3.28;2.38;;;;;;;22.83;44.57;99958.19;12213920;19;20460;-80
2022/07/31 06:15:41;;;;;;;4.50;2.42;;;;;;;22.89;44.67;99951.25;12200328;19;20010;-80
2022/07/31 06:19:49;;;;;;;7.88;2.90;;;;;;;22.93;44.31;99957.03;12179736;19;20010;-80
2022/07/31 06:23:51;;;;;;;3.67;2.30;;;;;;;23.02;44.77;99959.91;12209058;19;20038;-80
2022/07/31 06:28:01;;;;;;;3.83;2.78;;;;;;;23.05;44.34;99950.81;12198114;19;20011;-80
2022/07/31 06:32:11;;;;;;;4.68;2.50;;;;;;;23.11;44.50;99958.75;12175658;19;20014;-80
2022/07/31 06:36:12;;;;;;;4.73;2.60;;;;;;;23.12;44.55;99960.41;12196948;19;20023;-81
2022/07/31 06:40:21;;;;;;;4.45;2.22;;;;;;;23.23;44.39;99976.94;12187657;19;20469;-80
2022/07/31 06:44:43;;;;;;;8.75;2.95;;;;;;;23.23;43.66;99962.88;12198979;19;20026;-81
2022/07/31 06:49:13;;;;;;;4.47;2.65;;;;;;;23.36;43.79;99970.34;12201650;19;20106;-80
2022/07/31 06:53:15;;;;;;;5.60;2.37;;;;;;;23.40;43.71;99976.94;12206029;19;20011;-79
2022/07/31 06:57:16;;;;;;;5.97;2.50;;;;;;;23.52;43.84;99979.06;12192789;19;20014;-80
2022/07/31 07:01:18;;;;;;;7.30;2.40;;;;;;;23.67;43.51;99976.56;12207093;19;20011;-80
2022/07/31 07:05:20;;;;;;;5.90;2.70;;;;;;;24.20;42.52;99973.63;12235456;19;20022;-81
2022/07/31 07:09:26;;;;;;;7.25;3.15;;;;;;;24.01;43.26;99968.44;12206184;19;20011;-81
2022/07/31 07:13:28;;;;;;;5.10;2.88;;;;;;;24.15;42.88;99969.00;12190609;19;20010;-82
2022/07/31 07:17:48;;;;;;;6.35;2.78;;;;;;;24.28;43.06;99967.16;12204637;19;20107;-82
2022/07/31 07:21:55;;;;;;;6.28;2.55;;;;;;;24.25;42.04;99962.19;12201821;19;20040;-82
2022/07/31 07:25:57;;;;;;;6.40;2.67;;;;;;;24.30;42.42;99965.66;12179050;19;20023;-80
2022/07/31 07:30:00;;;;;;;5.97;2.50;;;;;;;24.44;42.23;99959.81;12213657;19;20010;-81
2022/07/31 07:34:04;;;;;;;7.25;3.13;;;;;;;24.60;42.16;99950.75;12203343;19;20023;-81
2022/07/31 07:38:07;;;;;;;6.15;3.10;;;;;;;24.81;41.62;99946.00;12185495;19;20010;-82
2022/07/31 07:42:10;;;;;;;5.55;3.00;;;;;;;24.90;41.14;99952.41;12205547;19;20015;-81
2022/07/31 07:46:12;;;;;;;5.30;2.90;;;;;;;24.97;41.06;99947.03;12211400;19;20527;-81
2022/07/31 07:50:18;;;;;;;6.20;2.65;;;;;;;25.29;40.63;99944.66;12186447;19;20018;-81
2022/07/31 07:54:57;;;;;;;5.18;3.08;;;;;;;25.64;39.71;99947.97;12209914;19;20007;-80
2022/07/31 07:59:31;;;;;;;5.40;2.70;;;;;;;25.92;39.08;99938.91;12185965;19;20407;-81
2022/07/31 08:04:08;;;;;;;5.55;3.00;;;;;;;26.20;39.06;99941.88;12202229;19;20035;-80
2022/07/31 08:08:10;;;;;;;4.63;2.95;;;;;;;26.36;38.83;99937.19;12190308;19;20014;-81
2022/07/31 08:12:20;;;;;;;4.85;3.40;;;;;;;26.24;37.83;99940.00;12198133;19;20601;-81
2022/07/31 08:16:55;;;;;;;5.95;3.00;;;;;;;26.16;38.46;99940.94;12177037;19;20023;-81
2022/07/31 08:20:58;;;;;;;8.13;3.80;;;;;;;26.19;38.42;99931.75;12205063;19;20454;-81
2022/07/31 08:25:00;;;;;;;5.80;2.90;;;;;;;26.15;38.37;99936.47;12201526;19;20010;-81
2022/07/31 08:29:07;;;;;;;6.70;3.00;;;;;;;26.05;38.12;99937.72;12173915;19;20007;-80
2022/07/31 08:33:09;;;;;;;8.05;2.92;;;;;;;26.14;38.17;99929.16;12200520;19;20011;-81
2022/07/31 08:37:13;;;;;;;5.03;3.10;;;;;;;26.46;37.73;99923.75;12194742;19;20014;-81
2022/07/31 08:41:39;;;;;;;10.23;3.42;;;;;;;26.82;36.79;99914.44;12201633;19;19999;-81
2022/07/31 08:45:45;;;;;;;8.30;2.83;;;;;;;27.26;36.34;99921.03;12195494;19;19999;-81
2022/07/31 08:50:00;;;;;;;6.50;3.30;;;;;;;28.04;35.60;99915.09;12178370;19;20014;-80
2022/07/31 08:54:06;;;;;;;7.32;3.20;;;;;;;28.92;33.62;99907.13;12184971;19;20075;-80
2022/07/31 08:58:09;;;;;;;6.20;3.60;;;;;;;28.97;32.93;99906.00;12199575;19;20030;-80
2022/07/31 09:02:11;;;;;;;4.60;2.90;;;;;;;28.74;32.47;99908.75;12183188;19;20013;-80
2022/07/31 09:06:29;;;;;;;5.78;3.08;;;;;;;28.85;32.40;99907.78;12214287;19;20010;-80
2022/07/31 09:10:33;;;;;;;5.75;2.80;;;;;;;29.17;31.74;99898.34;12202171;19;20010;-82
2022/07/31 09:14:35;;;;;;;5.32;2.83;;;;;;;29.22;31.44;99893.19;12218210;19;20011;-81
2022/07/31 09:18:39;;;;;;;6.13;2.63;;;;;;;29.25;31.53;99886.78;12212973;19;20014;-81
2022/07/31 09:22:43;;;;;;;4.82;2.40;;;;;;;29.12;31.15;99881.63;12194089;19;20011;-82
2022/07/31 09:26:46;;;;;;;;;;;;;;;29.54;30.34;99881.66;12219020;19;20019;-83
2022/07/31 09:30:54;;;;;;;5.63;2.58;;;;;;;30.14;29.87;99876.28;12220912;19;19915;-79
2022/07/31 09:35:16;;;;;;;4.85;2.70;;;;;;;30.40;29.09;99872.66;12193836;19;20535;-82
2022/07/31 09:39:17;;;;;;;4.80;2.00;;;;;;;30.45;29.21;99865.81;12227987;19;20011;-80
2022/07/31 09:44:04;;;;;;;4.05;2.63;;;;;;;30.65;28.96;99873.03;12191513;19;20553;-80
2022/07/31 09:48:12;;;;;;;4.68;2.20;;;;;;;30.69;28.66;99864.53;12215506;19;20010;-79
2022/07/31 09:52:29;;;;;;;5.55;2.60;;;;;;;30.71;29.50;99864.16;12193853;19;20819;-79
2022/07/31 09:56:34;;;;;;;5.78;2.65;;;;;;;30.54;29.43;99866.34;12210841;19;20010;-80
2022/07/31 10:00:37;;;;;;;4.60;2.47;;;;;;;30.33;29.84;99861.16;12208723;19;20010;-80
2022/07/31 10:04:40;;;;;;;4.72;2.50;;;;;;;30.09;30.09;99859.53;12186824;19;20110;-80
2022/07/31 10:08:47;;;;;;;5.45;2.53;;;;;;;30.00;30.38;99855.31;12225577;19;20056;-79
2022/07/31 10:13:12;;;;;;;5.28;2.40;;;;;;;30.01;30.49;99846.41;12214627;19;20013;-79
2022/07/31 10:17:19;;;;;;;3.05;2.03;;;;;;;30.14;30.28;99847.84;12175549;19;20014;-80
2022/07/31 10:21:39;;;;;;;3.83;2.30;;;;;;;30.26;30.40;99841.16;12202443;19;20032;-80
2022/07/31 10:25:50;;;;;;;5.35;2.47;;;;;;;30.34;30.30;99840.09;12189393;19;20025;-80
2022/07/31 10:29:55;;;;;;;5.10;2.60;;;;;;;30.60;30.53;99824.19;12255196;19;20011;-84
2022/07/31 10:33:58;;;;;;;6.55;2.53;;;;;;;30.75;29.80;99823.19;12232375;19;20002;-81
2022/07/31 10:38:24;;;;;;;4.00;2.28;;;;;;;31.05;29.37;99822.34;12191422;19;20024;-82
2022/07/31 10:42:48;;;;;;;5.07;2.80;;;;;;;31.25;29.11;99820.16;12211477;19;20006;-84
2022/07/31 10:46:51;;;;;;;6.93;2.40;;;;;;;31.61;28.94;99804.28;12158725;19;20010;-83
2022/07/31 10:51:08;;;;;;;3.63;2.08;;;;;;;31.92;28.59;99799.31;12202272;19;20006;-82
2022/07/31 10:55:31;;;;;;;3.10;2.15;;;;;;;32.70;27.56;99798.19;12191623;19;20039;-83
2022/07/31 11:00:12;;;;;;;3.67;2.10;;;;;;;33.15;26.67;99795.94;12207283;19;20007;-84
2022/07/31 11:04:31;;;;;;;4.38;2.25;;;;;;;33.14;26.81;99786.56;12185014;19;20442;-87
2022/07/31 11:08:59;;;;;;;5.93;2.10;;;;;;;32.88;26.81;99784.81;12210115;19;20014;-80
2022/07/31 11:13:22;;;;;;;;;;;;;;;32.98;26.75;99768.94;12182669;19;20027;-79
2022/07/31 11:17:48;;;;;;;5.55;2.10;;;;;;;33.00;26.95;99770.19;12199594;19;19950;-79
2022/07/31 11:22:16;;;;;;;5.63;2.70;;;;;;;32.82;26.97;99769.31;12188487;19;20014;-81
2022/07/31 11:26:32;;;;;;;3.47;2.40;;;;;;;32.52;27.31;99756.13;12209248;19;20006;-80
2022/07/31 11:30:51;;;;;;;4.25;2.40;;;;;;;33.35;26.70;99751.53;12206598;19;20014;-80
2022/07/31 11:34:55;;;;;;;4.32;2.70;;;;;;;33.41;26.62;99751.94;12180882;19;20015;-80
2022/07/31 11:38:56;;;;;;;4.43;2.40;;;;;;;33.01;26.79;99754.69;12209756;19;20016;-82
2022/07/31 11:43:00;;;;;;;4.15;2.30;;;;;;;33.04;26.96;99753.91;12214452;19;20079;-79
2022/07/31 11:47:21;;;;;;;4.50;2.42;;;;;;;33.50;26.62;99756.03;12176406;19;20021;-79
2022/07/31 11:51:43;;;;;;;5.05;2.25;;;;;;;34.31;25.76;99756.41;12215645;19;20010;-80
2022/07/31 11:55:46;;;;;;;;;;;;;;;35.15;24.74;99738.50;12182944;19;20014;-79
2022/07/31 11:59:48;;;;;;;4.65;2.83;;;;;;;35.82;24.08;99734.31;12206240;19;19947;-81
2022/07/31 12:03:51;;;;;;;4.10;2.60;;;;;;;36.41;23.45;99727.56;12203356;19;20018;-80
2022/07/31 12:07:53;;;;;;;4.43;2.60;;;;;;;36.90;22.49;99727.38;12188265;19;20014;-81
2022/07/31 12:11:55;;;;;;;5.53;2.33;;;;;;;36.97;23.19;99715.78;12203127;19;20024;-82
2022/07/31 12:16:06;;;;;;;3.60;2.70;;;;;;;37.57;22.23;99702.59;12200871;19;20404;-81
2022/07/31 12:20:08;;;;;;;3.95;2.60;;;;;;;38.17;21.52;99694.13;12178995;19;20031;-83
2022/07/31 12:24:12;;;;;;;4.70;3.00;;;;;;;37.75;21.98;99692.81;12205284;19;20030;-81
2022/07/31 12:28:14;;;;;;;5.47;3.22;;;;;;;36.52;22.75;99678.69;12201338;19;20025;-82
2022/07/31 12:32:24;;;;;;;3.90;2.90;;;;;;;35.75;23.43;99679.09;12173392;19;20378;-81
2022/07/31 12:36:26;;;;;;;3.92;2.90;;;;;;;35.98;23.82;99664.13;12209573;19;21749;-81
2022/07/31 12:40:28;;;;;;;4.47;2.97;;;;;;;36.43;23.05;99656.22;12183685;19;20074;-80
2022/07/31 12:44:29;;;;;;;4.78;2.83;;;;;;;36.83;23.23;99645.03;12206681;19;20007;-81
2022/07/31 12:48:32;;;;;;;8.77;3.15;;;;;;;38.12;21.88;99644.91;12213145;19;20023;-78
2022/07/31 12:52:40;;;;;;;3.83;2.67;;;;;;;38.75;21.03;99641.91;12192794;19;20018;-79
2022/07/31 12:56:43;;;;;;;5.32;2.60;;;;;;;38.06;21.60;99635.97;12213610;19;20022;-80
2022/07/31 13:00:44;;;;;;;6.22;2.83;;;;;;;38.12;21.11;99633.41;12208879;19;20006;-79
2022/07/31 13:04:46;;;;;;;9.65;2.83;;;;;;;36.98;21.71;99624.72;12189189;19;20007;-78
2022/07/31 13:08:48;;;;;;;3.47;2.55;;;;;;;38.11;21.40;99617.38;12209094;19;20574;-79
2022/07/31 13:12:49;;;;;;;5.53;2.75;;;;;;;38.50;20.42;99620.25;12217174;19;20014;-79
2022/07/31 13:16:52;;;;;;;6.55;2.60;;;;;;;38.93;20.43;99619.28;12186070;19;20032;-80
2022/07/31 13:20:54;;;;;;;3.58;2.30;;;;;;;39.28;19.15;99602.34;12204162;19;20085;-79
2022/07/31 13:24:56;;;;;;;6.15;2.50;;;;;;;40.05;18.73;99585.47;12212032;19;20011;-79
2022/07/31 13:28:58;;;;;;;2.35;1.98;;;;;;;39.91;18.45;99583.00;12199383;19;20364;-80
2022/07/31 13:32:59;;;;;;;3.58;2.30;;;;;;;39.68;18.37;99587.69;12209261;19;20014;-78
2022/07/31 13:37:01;;;;;;;5.18;2.33;;;;;;;40.36;17.99;99588.66;12218975;19;20018;-79
2022/07/31 13:45:23;;;;;;;6.47;2.50;;;;;;;39.24;18.07;99575.72;12197770;19;20698;-78
2022/07/31 13:49:30;;;;;;;3.88;2.22;;;;;;;37.43;19.88;99570.59;12177929;19;20007;-78
2022/07/31 13:53:32;;;;;;;2.83;2.17;;;;;;;36.27;20.72;99567.09;12216170;19;20014;-80
2022/07/31 13:57:34;;;;;;;4.70;2.45;;;;;;;35.49;21.11;99568.78;12220702;19;20015;-78
2022/07/31 14:01:35;;;;;;;4.00;2.38;;;;;;;35.03;21.71;99578.63;12199658;19;20700;-79
2022/07/31 14:05:57;;;;;;;3.92;2.00;;;;;;;34.61;21.80;99569.13;12227217;19;20011;-78
2022/07/31 14:10:07;;;;;;;4.00;2.20;;;;;;;34.33;21.79;99562.31;12237198;19;20019;-80
2022/07/31 14:14:09;;;;;;;6.72;2.10;;;;;;;33.90;21.73;99559.63;12229210;19;20022;-78
2022/07/31 14:18:11;;;;;;;4.05;2.25;;;;;;;33.83;22.28;99558.88;12234937;19;20018;-79
2022/07/31 14:22:13;;;;;;;2.80;2.10;;;;;;;33.78;22.40;99557.22;12205821;19;20081;-79
2022/07/31 14:26:14;;;;;;;5.63;1.98;;;;;;;33.66;22.77;99561.34;12181357;19;20015;-79
2022/07/31 14:30:16;;;;;;;3.40;2.00;;;;;;;34.31;22.70;99547.63;12207113;19;20045;-80
2022/07/31 14:34:20;;;;;;;4.18;2.15;;;;;;;34.72;22.25;99546.16;12172662;19;20010;-80
2022/07/31 14:38:35;;;;;;;3.85;2.13;;;;;;;34.85;22.52;99542.34;12211314;19;20010;-80
2022/07/31 14:42:39;;;;;;;3.33;2.22;;;;;;;34.67;22.66;99553.94;12201960;19;20010;-79
2022/07/31 14:46:40;;;;;;;2.53;1.90;;;;;;;34.52;22.48;99546.66;12179490;19;20091;-79
2022/07/31 14:50:42;;;;;;;;;;;;;;;34.11;22.86;99547.31;12200051;19;20038;-80
2022/07/31 14:54:44;;;;;;;9.15;2.13;;;;;;;34.11;22.70;99540.78;12199200;19;20270;-79
2022/07/31 14:58:45;;;;;;;;;;;;;;;34.28;22.64;99539.88;12179363;19;20014;-79
2022/07/31 15:02:59;;;;;;;2.67;1.95;;;;;;;34.28;22.64;99544.78;12199294;19;19950;-78
2022/07/31 15:07:00;;;;;;;;;;;;;;;34.14;22.90;99534.25;12205238;19;20003;-80
2022/07/31 15:11:22;;;;;;;4.53;2.20;;;;;;;34.47;22.76;99522.16;12175497;19;19907;-80
2022/07/31 15:15:44;;;;;;;2.72;2.00;;;;;;;34.58;22.94;99524.19;12206422;19;20231;-79
2022/07/31 15:19:46;;;;;;;6.07;2.20;;;;;;;34.75;22.98;99528.97;12177225;19;20011;-78
2022/07/31 15:23:48;;;;;;;7.32;2.30;;;;;;;34.54;23.52;99526.25;12232389;19;20006;-79
2022/07/31 15:27:49;;;;;;;4.63;2.30;;;;;;;34.82;23.37;99522.34;12226156;19;20025;-79
2022/07/31 15:31:51;;;;;;;;;;;;;;;34.93;23.35;99523.09;12191724;19;20039;-79
2022/07/31 15:35:54;;;;;;;2.88;2.13;;;;;;;34.77;23.17;99525.66;12226428;19;19922;-79
2022/07/31 15:39:56;;;;;;;3.60;1.90;;;;;;;34.19;23.43;99526.03;12250762;19;20011;-79
2022/07/31 15:44:03;;;;;;;2.72;1.88;;;;;;;33.65;24.01;99528.31;12219790;19;20014;-81
2022/07/31 15:48:07;;;;;;;3.05;2.08;;;;;;;33.29;24.57;99519.81;12238793;19;20031;-80
2022/07/31 15:52:10;;;;;;;5.45;2.20;;;;;;;34.13;23.57;99521.19;12257647;19;20013;-80
2022/07/31 15:56:20;;;;;;;5.10;2.05;;;;;;;34.46;23.16;99517.69;12208222;19;20015;-79
2022/07/31 16:00:22;;;;;;;4.90;2.25;;;;;;;34.21;23.84;99517.06;12216067;19;20054;-77
2022/07/31 16:04:24;;;;;;;4.88;2.00;;;;;;;33.95;23.79;99504.09;12210071;19;20022;-78
2022/07/31 16:08:32;;;;;;;2.47;1.80;;;;;;;33.39;24.73;99503.88;12220558;19;20068;-78
2022/07/31 16:12:36;;;;;;;2.63;2.03;;;;;;;33.02;24.71;99502.31;12221464;19;20010;-78
2022/07/31 16:16:38;;;;;;;2.88;1.90;;;;;;;32.47;26.19;99508.41;12207120;19;20022;-78
2022/07/31 16:20:46;;;;;;;3.60;1.65;;;;;;;32.25;26.11;99495.31;12218058;19;20019;-79
2022/07/31 16:24:47;;;;;;;;;;;;;;;32.04;26.78;99496.91;12231130;19;20013;-79
2022/07/31 16:28:49;;;;;;;1.97;1.40;;;;;;;31.97;27.10;99494.00;12210177;19;19935;-78
2022/07/31 16:32:54;;;;;;;3.13;2.10;;;;;;;31.85;27.77;99494.34;12226824;19;20258;-79
2022/07/31 16:36:56;;;;;;;2.67;1.52;;;;;;;31.70;28.19;99488.59;12232983;19;20011;-79
2022/07/31 16:40:58;;;;;;;3.40;1.70;;;;;;;31.71;28.27;99490.25;12202091;19;20014;-78
2022/07/31 16:45:00;;;;;;;2.58;1.50;;;;;;;31.71;28.12;99481.69;12213749;19;20002;-78
2022/07/31 16:49:01;;;;;;;3.28;1.60;;;;;;;31.75;27.86;99484.53;12215663;19;20010;-77
2022/07/31 16:53:26;;;;;;;5.32;1.60;;;;;;;31.86;28.63;99481.72;12193433;19;20389;-79
2022/07/31 16:57:47;;;;;;;3.58;2.15;;;;;;;31.54;28.98;99490.97;12216815;19;20448;-79
2022/07/31 17:01:50;;;;;;;3.10;1.90;;;;;;;31.34;28.69;99493.28;12184227;19;20081;-78
2022/07/31 17:06:02;;;;;;;7.13;1.67;;;;;;;31.17;29.28;99491.94;12214369;19;20010;-78
2022/07/31 17:10:04;;;;;;;4.63;2.13;;;;;;;31.13;29.30;99491.13;12208237;19;20018;-79
2022/07/31 17:14:06;;;;;;;1.95;1.60;;;;;;;31.02;29.48;99493.88;12193667;19;20089;-78
2022/07/31 17:18:08;;;;;;;1.90;1.70;;;;;;;30.97;29.54;99490.63;12213089;19;20613;-78
2022/07/31 17:22:10;;;;;;;3.55;1.80;;;;;;;31.02;30.00;99491.03;12220034;19;20010;-78
2022/07/31 17:26:19;;;;;;;4.13;1.77;;;;;;;31.02;29.71;99490.22;12195673;19;20032;-78
2022/07/31 17:30:22;;;;;;;5.22;1.88;;;;;;;31.08;29.92;99491.47;12212074;19;20024;-78
2022/07/31 17:34:24;;;;;;;2.60;1.80;;;;;;;31.20;29.88;99491.16;12189156;19;20011;-78
2022/07/31 17:38:27;;;;;;;2.63;1.60;;;;;;;31.11;30.41;99493.53;12211564;19;20027;-79
2022/07/31 17:42:28;;;;;;;2.35;1.73;;;;;;;31.03;30.21;99491.88;12217730;19;20027;-79
2022/07/31 17:46:31;;;;;;;2.08;1.70;;;;;;;30.90;30.42;99487.69;12189929;19;20019;-78
2022/07/31 17:50:37;;;;;;;3.25;1.55;;;;;;;30.84;30.26;99490.91;12205235;19;20473;-78
2022/07/31 17:54:46;;;;;;;2.90;1.70;;;;;;;30.57;30.60;99490.25;12217571;19;20036;-79
2022/07/31 17:58:48;;;;;;;2.72;1.60;;;;;;;30.25;30.90;99500.50;12206906;19;20401;-78
2022/07/31 18:02:50;;;;;;;2.80;1.90;;;;;;;30.07;31.41;99505.97;12228996;19;20040;-78
2022/07/31 18:06:51;;;;;;;3.25;1.70;;;;;;;30.06;31.06;99501.50;12206314;19;20175;-78
2022/07/31 18:10:55;;;;;;;2.50;2.00;;;;;;;29.94;31.47;99508.25;12190066;19;20007;-79
2022/07/31 18:14:57;;;;;;;2.45;1.75;;;;;;;29.75;31.75;99512.91;12198255;19;20010;-78
2022/07/31 18:18:58;;;;;;;2.13;1.40;;;;;;;29.60;31.90;99515.91;12213377;19;20014;-79
2022/07/31 18:23:00;;;;;;;2.47;1.80;;;;;;;29.48;31.84;99520.66;12193649;19;20011;-79
2022/07/31 18:27:02;;;;;;;8.38;3.85;;;;;;;29.31;32.58;99532.56;12217228;19;20007;-78
2022/07/31 18:31:04;;;;;;;3.40;1.70;;;;;;;29.17;32.37;99529.50;12217342;19;20014;-79
2022/07/31 18:35:25;;;;;;;3.67;1.83;;;;;;;29.06;32.63;99527.34;12193063;19;20009;-79
2022/07/31 18:39:27;;;;;;;2.88;1.70;;;;;;;28.97;32.84;99526.75;12216943;19;20034;-78
2022/07/31 18:43:29;;;;;;;3.40;1.70;;;;;;;28.85;32.97;99532.59;12193846;19;20014;-78
2022/07/31 18:47:32;;;;;;;2.97;1.80;;;;;;;28.72;32.89;99540.50;12210099;19;20044;-78
2022/07/31 18:51:34;;;;;;;2.38;1.58;;;;;;;28.60;33.37;99538.69;12214636;19;20086;-78
2022/07/31 18:55:36;;;;;;;4.97;1.45;;;;;;;28.49;33.97;99543.34;12200176;19;20000;-78
2022/07/31 18:59:37;;;;;;;4.90;1.52;;;;;;;28.30;34.42;99546.19;12200688;19;20010;-78
2022/07/31 19:03:39;;;;;;;4.88;1.88;;;;;;;28.13;34.50;99542.63;12205113;19;20026;-78
2022/07/31 19:07:41;;;;;;;2.60;1.77;;;;;;;27.98;35.13;99551.22;12181412;19;20605;-78
2022/07/31 19:11:43;;;;;;;6.53;2.10;;;;;;;27.94;35.92;99557.63;12205441;19;20670;-79
2022/07/31 19:15:52;;;;;;;4.25;1.60;;;;;;;27.92;35.91;99557.19;12207414;19;20459;-79